Time;durP1;ratioP1;P1;durP2;ratioP2;P2;SDS_P1;SDS_P2;PMS_P1;PMS_P2;Temp;Humidity;BMP_temperature;BMP_pressure;BME280_temperature;BME280_humidity;BME280_pressure;Samples;Min_cycle;Max_cycle;Signal;HPM_P1;HPM_P2
2021/07/20 00:02:21;;;;;;;30.67;15.30;;;14.40;95.70;;;;;;4994374;28;20054;-85
2021/07/20 00:04:47;;;;;;;27.90;15.23;;;14.40;95.70;;;;;;4974938;28;20061;-87
2021/07/20 00:07:13;;;;;;;34.30;16.33;;;14.40;95.80;;;;;;4989649;28;20026;-85
2021/07/20 00:09:39;;;;;;;31.55;16.92;;;14.40;96.00;;;;;;4973963;28;20109;-86
2021/07/20 00:12:05;;;;;;;29.50;15.95;;;14.50;96.00;;;;;;4984296;28;20128;-85
2021/07/20 00:14:31;;;;;;;32.10;16.05;;;14.50;96.00;;;;;;5008601;28;20575;-85
2021/07/20 00:16:57;;;;;;;34.42;16.67;;;14.50;95.90;;;;;;4971790;28;20038;-85
2021/07/20 00:19:22;;;;;;;31.85;15.30;;;14.50;96.00;;;;;;4974614;28;20046;-85
2021/07/20 00:21:49;;;;;;;29.48;16.30;;;14.40;96.00;;;;;;4971596;28;20084;-85
2021/07/20 00:24:15;;;;;;;34.65;16.10;;;14.40;96.00;;;;;;4980106;28;20054;-85
2021/07/20 00:26:41;;;;;;;27.95;15.50;;;14.50;95.90;;;;;;4987225;28;20084;-85
2021/07/20 00:29:07;;;;;;;33.17;15.75;;;14.50;95.80;;;;;;4966797;28;22593;-85
2021/07/20 00:31:33;;;;;;;31.25;15.90;;;14.40;95.90;;;;;;4999227;28;21092;-85
2021/07/20 00:33:59;;;;;;;33.63;16.48;;;14.50;95.90;;;;;;4989483;28;20035;-85
2021/07/20 00:36:25;;;;;;;31.55;15.52;;;14.50;95.90;;;;;;4970758;28;20065;-85
2021/07/20 00:38:51;;;;;;;26.75;15.25;;;14.50;96.00;;;;;;4965988;28;20468;-87
2021/07/20 00:41:16;;;;;;;32.85;16.30;;;14.50;96.10;;;;;;4953080;28;20030;-86
2021/07/20 00:43:42;;;;;;;29.67;16.25;;;14.50;96.20;;;;;;5022119;28;20036;-87
2021/07/20 00:46:08;;;;;;;30.25;16.08;;;14.40;96.30;;;;;;5009661;28;20077;-85
2021/07/20 00:48:34;;;;;;;27.63;16.05;;;14.40;95.90;;;;;;4967462;28;20034;-85
2021/07/20 00:51:00;;;;;;;27.50;15.52;;;14.40;95.90;;;;;;4980683;28;20116;-85
2021/07/20 00:53:27;;;;;;;32.28;16.33;;;14.40;96.00;;;;;;4993648;28;20069;-85
2021/07/20 00:55:53;;;;;;;29.67;15.25;;;14.50;96.20;;;;;;5022702;28;20021;-85
2021/07/20 00:58:19;;;;;;;29.17;15.63;;;14.50;96.20;;;;;;5000114;28;20408;-85
2021/07/20 01:00:51;;;;;;;25.98;15.73;;;14.40;96.00;;;;;;4996475;28;20029;-85
2021/07/20 01:03:17;;;;;;;29.60;14.80;;;14.40;95.90;;;;;;4984958;28;20096;-85
2021/07/20 01:05:43;;;;;;;27.30;14.68;;;14.40;95.80;;;;;;4969988;28;20037;-85
2021/07/20 01:08:09;;;;;;;27.42;15.52;;;14.40;95.70;;;;;;4994177;28;20464;-86
2021/07/20 01:10:37;;;;;;;28.38;14.90;;;14.40;95.70;;;;;;4985325;28;20030;-86
2021/07/20 01:13:04;;;;;;;29.90;16.52;;;14.40;95.70;;;;;;5015841;28;20445;-85
2021/07/20 01:15:30;;;;;;;27.50;15.48;;;14.40;95.60;;;;;;4971774;28;20052;-85
2021/07/20 01:17:59;;;;;;;24.55;14.98;;;14.30;95.50;;;;;;4980719;28;20114;-85
2021/07/20 01:20:27;;;;;;;28.90;15.07;;;14.30;95.60;;;;;;4980249;28;20038;-85
2021/07/20 01:23:09;;;;;;;27.75;14.48;;;14.30;95.50;;;;;;4991022;28;20041;-85
2021/07/20 01:25:37;;;;;;;29.13;15.38;;;14.30;95.60;;;;;;4995780;28;20038;-86
2021/07/20 01:28:07;;;;;;;32.92;14.82;;;14.30;95.60;;;;;;4991965;28;20033;-85
2021/07/20 01:30:35;;;;;;;27.17;14.55;;;14.30;95.70;;;;;;4986164;28;20084;-85
2021/07/20 01:33:05;;;;;;;28.30;14.52;;;14.30;95.90;;;;;;4979240;28;20113;-85
2021/07/20 01:35:34;;;;;;;26.40;13.63;;;14.30;95.90;;;;;;4997590;23;20054;-87
2021/07/20 01:38:03;;;;;;;27.15;14.68;;;14.30;96.00;;;;;;4979624;28;20042;-87
2021/07/20 01:40:29;;;;;;;28.67;15.10;;;14.30;95.90;;;;;;4973564;28;20042;-84
2021/07/20 01:42:56;;;;;;;26.02;14.50;;;14.30;95.80;;;;;;4968990;28;20035;-87
2021/07/20 01:45:23;;;;;;;25.50;14.35;;;14.30;95.80;;;;;;4953485;28;20369;-86
2021/07/20 01:47:50;;;;;;;31.02;14.75;;;14.30;95.60;;;;;;4945270;28;20769;-87
2021/07/20 01:50:18;;;;;;;25.52;13.27;;;14.30;95.60;;;;;;4944409;28;20031;-87
2021/07/20 01:52:46;;;;;;;27.65;14.10;;;14.30;95.60;;;;;;4955483;28;20505;-87
2021/07/20 01:55:13;;;;;;;25.75;13.95;;;14.30;95.70;;;;;;4954933;28;20035;-86
2021/07/20 01:57:40;;;;;;;24.35;13.25;;;14.30;95.70;;;;;;4953111;28;20062;-87
2021/07/20 02:00:15;;;;;;;23.75;13.77;;;14.30;95.70;;;;;;4920422;28;20047;-85
2021/07/20 02:03:13;;;;;;;25.02;12.35;;;14.30;95.70;;;;;;4959450;28;20038;-84
2021/07/20 02:08:29;;;;;;;24.23;13.68;;;14.30;95.60;;;;;;4957029;28;20058;-86
2021/07/20 02:11:07;;;;;;;23.85;13.90;;;14.30;95.70;;;;;;4949822;28;20035;-86
2021/07/20 02:13:44;;;;;;;24.50;12.88;;;14.30;95.80;;;;;;4956936;28;20531;-85
2021/07/20 02:16:13;;;;;;;25.63;12.75;;;14.30;95.90;;;;;;4957456;28;20512;-85
2021/07/20 02:18:50;;;;;;;27.80;14.02;;;14.30;96.00;;;;;;4952680;28;20067;-86
2021/07/20 02:21:20;;;;;;;21.05;12.77;;;14.30;96.20;;;;;;4957511;28;20475;-87
2021/07/20 02:23:49;;;;;;;21.40;12.32;;;14.30;96.00;;;;;;4950728;28;20046;-86
2021/07/20 02:26:16;;;;;;;23.95;12.95;;;14.30;95.80;;;;;;4962420;28;20398;-85
2021/07/20 02:28:42;;;;;;;24.13;11.88;;;14.30;95.90;;;;;;4937689;28;20080;-85
2021/07/20 02:31:09;;;;;;;29.33;13.75;;;14.30;95.90;;;;;;4940948;28;20070;-86
2021/07/20 02:33:37;;;;;;;22.10;12.50;;;14.30;95.90;;;;;;4943892;28;20054;-87
2021/07/20 02:36:05;;;;;;;24.08;13.27;;;14.30;96.10;;;;;;4936285;28;20043;-87
2021/07/20 02:38:32;;;;;;;23.67;12.45;;;14.30;96.10;;;;;;4971790;28;20134;-85
2021/07/20 02:40:59;;;;;;;24.70;12.82;;;14.30;96.10;;;;;;4969373;28;20039;-87
2021/07/20 02:43:26;;;;;;;24.85;12.65;;;14.40;96.10;;;;;;4970629;28;20070;-87
2021/07/20 02:45:54;;;;;;;23.27;12.70;;;14.40;96.00;;;;;;4956126;28;20238;-87
2021/07/20 02:48:22;;;;;;;21.85;12.20;;;14.40;96.00;;;;;;4947380;28;20379;-87
2021/07/20 02:50:49;;;;;;;24.70;12.02;;;14.40;95.90;;;;;;4969224;28;20088;-86
2021/07/20 02:53:16;;;;;;;22.05;12.27;;;14.40;95.90;;;;;;4937391;28;20501;-87
2021/07/20 02:55:43;;;;;;;22.25;13.13;;;14.40;96.00;;;;;;4959103;28;20038;-87
2021/07/20 02:58:09;;;;;;;24.30;12.10;;;14.40;95.90;;;;;;4953797;28;20035;-87
2021/07/20 03:00:36;;;;;;;19.05;11.85;;;14.40;96.00;;;;;;4935660;28;20043;-86
2021/07/20 03:03:02;;;;;;;19.73;11.10;;;14.40;95.90;;;;;;4939456;28;20059;-86
2021/07/20 03:05:28;;;;;;;21.42;12.50;;;14.40;95.90;;;;;;4955823;28;20039;-86
2021/07/20 03:07:58;;;;;;;21.23;11.73;;;14.40;95.70;;;;;;4955090;28;20042;-86
2021/07/20 03:10:31;;;;;;;20.38;12.13;;;14.40;95.70;;;;;;4955276;28;20043;-86
2021/07/20 03:13:02;;;;;;;19.70;11.70;;;14.40;95.70;;;;;;4971589;28;20035;-85
2021/07/20 03:15:30;;;;;;;23.45;12.43;;;14.50;95.70;;;;;;4951752;28;20058;-85
2021/07/20 03:17:57;;;;;;;23.30;12.35;;;14.50;95.70;;;;;;4943896;28;20035;-86
2021/07/20 03:20:25;;;;;;;23.05;12.68;;;14.50;95.80;;;;;;4962180;28;20485;-87
2021/07/20 03:22:52;;;;;;;23.90;12.45;;;14.50;95.90;;;;;;4930113;28;20035;-87
2021/07/20 03:25:19;;;;;;;24.00;12.93;;;14.50;96.00;;;;;;4934487;28;20475;-87
2021/07/20 03:27:46;;;;;;;28.48;13.52;;;14.50;96.20;;;;;;4952469;28;20057;-85
2021/07/20 03:30:12;;;;;;;23.23;12.52;;;14.50;96.30;;;;;;4935193;28;20194;-87
2021/07/20 03:32:44;;;;;;;25.50;13.27;;;14.50;96.40;;;;;;4925594;28;20053;-86
2021/07/20 03:35:12;;;;;;;25.17;12.82;;;14.50;96.50;;;;;;4954490;28;20400;-85
2021/07/20 03:37:38;;;;;;;22.50;12.25;;;14.50;96.50;;;;;;4952986;28;20031;-86
2021/07/20 03:40:06;;;;;;;23.98;12.68;;;14.50;96.50;;;;;;4962084;28;20046;-87
2021/07/20 03:42:32;;;;;;;26.10;13.35;;;14.50;96.30;;;;;;4931697;28;20034;-86
2021/07/20 03:44:58;;;;;;;25.88;13.43;;;14.50;96.50;;;;;;4952106;28;20085;-88
2021/07/20 03:47:24;;;;;;;26.63;13.40;;;14.50;96.50;;;;;;4962769;28;20344;-87
2021/07/20 03:49:53;;;;;;;24.67;13.82;;;14.50;96.30;;;;;;4964539;28;20065;-87
2021/07/20 03:52:20;;;;;;;20.77;12.77;;;14.50;96.20;;;;;;4963062;28;20051;-87
2021/07/20 03:54:46;;;;;;;27.40;12.98;;;14.50;96.20;;;;;;4941595;28;20042;-91
2021/07/20 03:57:17;;;;;;;24.63;13.55;;;14.50;96.20;;;;;;4944182;28;20054;-92
2021/07/20 03:59:44;;;;;;;24.17;12.90;;;14.50;96.20;;;;;;4972650;28;20031;-87
2021/07/20 04:02:11;;;;;;;26.70;13.57;;;14.50;96.20;;;;;;4941375;28;20565;-90
2021/07/20 04:04:40;;;;;;;17.13;10.38;;;14.50;96.20;;;;;;4963227;28;20035;-88
2021/07/20 04:07:17;;;;;;;19.42;11.32;;;14.50;96.00;;;;;;4950027;28;20478;-90
2021/07/20 04:09:45;;;;;;;20.33;11.15;;;14.50;95.80;;;;;;4952619;28;20393;-88
2021/07/20 04:12:15;;;;;;;19.83;10.70;;;14.50;95.60;;;;;;4943230;28;20042;-86
2021/07/20 04:14:45;;;;;;;20.67;11.30;;;14.50;95.40;;;;;;4935660;28;20066;-90
2021/07/20 04:17:15;;;;;;;20.13;10.77;;;14.50;95.30;;;;;;4934497;28;20420;-89
2021/07/20 04:19:44;;;;;;;20.42;11.55;;;14.50;95.40;;;;;;4980531;28;20035;-91
2021/07/20 04:22:12;;;;;;;19.25;10.50;;;14.50;95.60;;;;;;4944732;28;20207;-87
2021/07/20 04:24:39;;;;;;;21.05;11.50;;;14.50;95.60;;;;;;4946743;28;20129;-88
2021/07/20 04:27:05;;;;;;;18.40;10.80;;;14.50;95.70;;;;;;4943743;28;20039;-87
2021/07/20 04:29:31;;;;;;;22.15;11.00;;;14.50;95.70;;;;;;4958439;28;20062;-88
2021/07/20 04:32:02;;;;;;;23.10;11.00;;;14.50;95.70;;;;;;4959882;28;20039;-91
2021/07/20 04:34:29;;;;;;;19.73;11.45;;;14.50;95.80;;;;;;4963882;28;20048;-91
2021/07/20 04:36:55;;;;;;;19.17;10.85;;;14.50;95.80;;;;;;4946552;28;20035;-88
2021/07/20 04:39:21;;;;;;;20.58;12.05;;;14.60;95.80;;;;;;4949493;28;20047;-86
2021/07/20 04:41:48;;;;;;;19.17;11.57;;;14.60;95.60;;;;;;4936979;28;20050;-86
2021/07/20 04:44:15;;;;;;;19.45;11.38;;;14.60;95.60;;;;;;4948292;28;20055;-86
2021/07/20 04:46:46;;;;;;;20.42;11.45;;;14.60;95.50;;;;;;4946189;28;20464;-88
2021/07/20 04:49:14;;;;;;;19.13;10.52;;;14.70;95.70;;;;;;4969960;28;20065;-87
2021/07/20 04:51:41;;;;;;;20.00;11.10;;;14.60;95.90;;;;;;4968299;28;20264;-87
2021/07/20 04:54:08;;;;;;;21.65;11.20;;;14.70;95.80;;;;;;4964722;28;20474;-90
2021/07/20 04:56:34;;;;;;;18.13;11.38;;;14.70;95.80;;;;;;4966307;28;20122;-87
2021/07/20 04:59:00;;;;;;;18.00;10.93;;;14.70;95.90;;;;;;4950427;28;20043;-90
2021/07/20 05:01:27;;;;;;;17.52;10.40;;;14.70;95.80;;;;;;4967280;28;20042;-87
2021/07/20 05:03:56;;;;;;;23.02;11.60;;;14.70;95.60;;;;;;4969435;28;20130;-90
2021/07/20 05:06:23;;;;;;;20.40;11.05;;;14.70;95.60;;;;;;4963674;28;20125;-87
2021/07/20 05:08:51;;;;;;;22.13;11.23;;;14.80;95.60;;;;;;4959352;28;20038;-86
2021/07/20 05:11:20;;;;;;;18.75;10.82;;;14.80;95.70;;;;;;4944558;28;20070;-86
2021/07/20 05:13:46;;;;;;;20.42;11.48;;;14.80;95.70;;;;;;4966853;28;20136;-88
2021/07/20 05:16:13;;;;;;;19.50;11.02;;;14.80;95.90;;;;;;4965098;28;20481;-87
2021/07/20 05:18:39;;;;;;;19.35;10.77;;;14.80;95.80;;;;;;4948548;28;20035;-88
2021/07/20 05:21:05;;;;;;;21.73;11.48;;;14.90;95.70;;;;;;4934191;28;20055;-88
2021/07/20 05:23:34;;;;;;;20.05;11.10;;;14.90;95.70;;;;;;4941085;28;20066;-87
2021/07/20 05:26:00;;;;;;;21.30;11.77;;;14.90;95.70;;;;;;4944985;28;20031;-89
2021/07/20 05:28:28;;;;;;;20.02;11.05;;;15.00;95.60;;;;;;4947898;28;20042;-91
2021/07/20 05:30:58;;;;;;;21.25;11.45;;;15.00;95.60;;;;;;4945084;28;20125;-88
2021/07/20 05:33:24;;;;;;;19.05;11.20;;;15.00;95.60;;;;;;4927520;28;20047;-88
2021/07/20 05:35:56;;;;;;;20.30;10.70;;;15.10;95.70;;;;;;4947355;28;20517;-87
2021/07/20 05:38:23;;;;;;;17.90;10.00;;;15.10;95.60;;;;;;4957547;28;20038;-90
2021/07/20 05:40:49;;;;;;;17.85;10.50;;;15.20;95.50;;;;;;4924803;28;20539;-87
2021/07/20 05:43:17;;;;;;;18.98;10.63;;;15.20;95.50;;;;;;4932474;28;20535;-87
2021/07/20 05:45:43;;;;;;;20.92;11.10;;;15.30;95.40;;;;;;4954134;28;20030;-87
2021/07/20 05:48:10;;;;;;;22.55;12.77;;;15.30;95.70;;;;;;4961061;28;20655;-87
2021/07/20 05:50:41;;;;;;;26.77;12.77;;;15.30;96.00;;;;;;4957714;28;20121;-88
2021/07/20 05:53:08;;;;;;;22.02;11.50;;;15.40;95.90;;;;;;4936682;28;20138;-88
2021/07/20 05:55:35;;;;;;;28.40;12.50;;;15.40;95.90;;;;;;4921281;28;20057;-88
2021/07/20 05:58:01;;;;;;;24.10;11.63;;;15.40;95.90;;;;;;4952356;28;20042;-88
2021/07/20 06:00:28;;;;;;;23.35;12.60;;;15.40;95.90;;;;;;4956110;28;20038;-88
2021/07/20 06:02:56;;;;;;;22.75;11.88;;;15.40;96.10;;;;;;4969887;28;20543;-91
2021/07/20 06:05:26;;;;;;;26.20;12.75;;;15.50;96.20;;;;;;4948285;28;20050;-90
2021/07/20 06:07:54;;;;;;;24.27;12.50;;;15.50;96.10;;;;;;4933390;28;20082;-89
2021/07/20 06:10:20;;;;;;;22.85;11.98;;;15.50;96.20;;;;;;4968307;28;20427;-90
2021/07/20 06:12:49;;;;;;;23.05;11.85;;;15.50;96.20;;;;;;4935037;28;20350;-87
2021/07/20 06:15:16;;;;;;;26.27;11.95;;;15.60;96.20;;;;;;4943386;28;20035;-88
2021/07/20 06:17:44;;;;;;;19.60;12.10;;;15.60;96.10;;;;;;4946161;28;20031;-89
2021/07/20 06:20:19;;;;;;;22.20;12.75;;;15.70;96.00;;;;;;4955849;28;20493;-88
2021/07/20 06:22:59;;;;;;;18.48;11.48;;;15.70;95.90;;;;;;4973341;28;20054;-92
2021/07/20 06:25:25;;;;;;;23.27;12.15;;;15.70;95.70;;;;;;4971782;28;20019;-92
2021/07/20 06:27:53;;;;;;;25.30;12.18;;;15.70;95.70;;;;;;4976622;28;20050;-88
2021/07/20 06:30:20;;;;;;;23.85;12.25;;;15.80;95.70;;;;;;4951241;28;20035;-90
2021/07/20 06:32:47;;;;;;;19.25;11.10;;;15.90;95.60;;;;;;4920636;28;20053;-90
2021/07/20 06:35:15;;;;;;;22.17;12.38;;;15.90;95.40;;;;;;4952094;28;20440;-90
2021/07/20 06:37:44;;;;;;;21.65;11.15;;;16.00;95.10;;;;;;4949042;28;20120;-89
2021/07/20 06:40:14;;;;;;;20.13;10.77;;;16.10;95.00;;;;;;4960815;28;20038;-87
2021/07/20 06:42:41;;;;;;;21.48;11.88;;;16.10;94.80;;;;;;4959037;28;20088;-89
2021/07/20 06:45:09;;;;;;;17.45;10.73;;;16.20;94.80;;;;;;4954872;28;20042;-90
2021/07/20 06:47:39;;;;;;;16.88;10.63;;;16.30;94.50;;;;;;4956638;28;20034;-89
2021/07/20 06:50:08;;;;;;;18.08;11.32;;;16.40;94.40;;;;;;4937436;28;20134;-88
2021/07/20 06:52:34;;;;;;;19.08;11.02;;;16.50;94.30;;;;;;4922742;28;20051;-89
2021/07/20 06:55:01;;;;;;;19.52;11.63;;;16.60;94.10;;;;;;4943106;28;20053;-88
2021/07/20 06:57:28;;;;;;;18.00;10.50;;;16.80;93.70;;;;;;4951595;28;20039;-88
2021/07/20 06:59:56;;;;;;;22.00;10.85;;;16.90;93.20;;;;;;4945020;28;20047;-88
2021/07/20 07:02:23;;;;;;;18.65;10.75;;;16.90;93.10;;;;;;4957601;28;20038;-88
2021/07/20 07:05:04;;;;;;;15.77;9.65;;;17.00;92.80;;;;;;4943347;28;20409;-89
2021/07/20 07:07:31;;;;;;;18.58;10.40;;;17.00;92.30;;;;;;4981289;28;20050;-89
2021/07/20 07:09:59;;;;;;;15.80;10.20;;;17.00;92.10;;;;;;4973937;28;20089;-88
2021/07/20 07:12:26;;;;;;;18.92;10.13;;;17.00;91.90;;;;;;4937322;28;20054;-88
2021/07/20 07:14:53;;;;;;;14.18;9.73;;;17.10;91.90;;;;;;4963192;28;20066;-88
2021/07/20 07:17:19;;;;;;;19.35;12.30;;;17.10;91.70;;;;;;4958337;28;20036;-88
2021/07/20 07:19:48;;;;;;;16.60;10.38;;;17.20;91.60;;;;;;4947578;28;20105;-88
2021/07/20 07:22:17;;;;;;;15.52;9.18;;;17.20;91.60;;;;;;4939966;28;20039;-89
2021/07/20 07:24:44;;;;;;;15.15;9.55;;;17.20;91.80;;;;;;4957092;28;20049;-88
2021/07/20 07:27:12;;;;;;;15.80;9.63;;;17.30;91.50;;;;;;4940452;28;20063;-90
2021/07/20 07:29:39;;;;;;;13.02;9.45;;;17.40;91.50;;;;;;4973771;28;20401;-90
2021/07/20 07:32:05;;;;;;;14.52;9.27;;;17.40;91.00;;;;;;4959461;28;20027;-88
2021/07/20 07:34:31;;;;;;;15.77;9.40;;;17.50;90.90;;;;;;4930664;28;20081;-86
2021/07/20 07:36:59;;;;;;;20.25;8.77;;;17.50;90.80;;;;;;4963627;28;20092;-88
2021/07/20 07:39:26;;;;;;;17.02;9.20;;;17.50;90.50;;;;;;4945749;28;20069;-87
2021/07/20 07:41:54;;;;;;;16.35;9.50;;;17.50;90.10;;;;;;4975553;28;20502;-87
2021/07/20 07:44:22;;;;;;;12.00;8.38;;;17.60;90.30;;;;;;4952135;28;20038;-87
2021/07/20 07:46:51;;;;;;;14.90;9.00;;;17.60;90.00;;;;;;4977586;28;20040;-87
2021/07/20 07:49:18;;;;;;;14.98;9.25;;;17.70;90.20;;;;;;4960636;28;20382;-87
2021/07/20 07:51:46;;;;;;;13.18;8.45;;;17.80;90.20;;;;;;4949141;28;20046;-90
2021/07/20 07:54:13;;;;;;;13.95;7.72;;;17.90;90.40;;;;;;4973296;28;20122;-90
2021/07/20 07:56:41;;;;;;;12.57;7.43;;;18.00;90.20;;;;;;4941017;28;20054;-87
2021/07/20 07:59:09;;;;;;;9.75;7.05;;;18.10;89.50;;;;;;4952995;28;20110;-88
2021/07/20 08:01:37;;;;;;;9.50;6.55;;;18.20;88.00;;;;;;4952213;28;20036;-88
2021/07/20 08:04:05;;;;;;;10.15;6.63;;;18.30;85.90;;;;;;4949970;28;20046;-87
2021/07/20 08:06:31;;;;;;;10.20;7.22;;;18.40;84.90;;;;;;4962443;28;21026;-88
2021/07/20 08:09:00;;;;;;;13.02;8.10;;;18.40;84.70;;;;;;4955852;28;20053;-87
2021/07/20 08:11:27;;;;;;;12.10;8.05;;;18.50;86.00;;;;;;4954438;28;20050;-87
2021/07/20 08:13:56;;;;;;;12.55;7.50;;;18.60;86.30;;;;;;4954398;28;20039;-88
2021/07/20 08:16:25;;;;;;;11.63;7.55;;;18.70;86.50;;;;;;4971293;28;20485;-86
2021/07/20 08:18:51;;;;;;;9.65;6.88;;;18.80;85.00;;;;;;4977296;28;20493;-88
2021/07/20 08:21:17;;;;;;;9.85;6.88;;;18.80;83.30;;;;;;4963219;28;20254;-87
2021/07/20 08:23:46;;;;;;;12.63;7.15;;;18.80;83.30;;;;;;4950447;28;20050;-88
2021/07/20 08:26:26;;;;;;;11.55;7.03;;;18.90;83.20;;;;;;4950731;28;20279;-88
2021/07/20 08:29:08;;;;;;;13.07;7.70;;;18.90;81.60;;;;;;4978710;28;20069;-91
2021/07/20 08:31:41;;;;;;;12.10;7.05;;;19.00;82.30;;;;;;4980387;28;20035;-90
2021/07/20 08:34:09;;;;;;;10.02;7.05;;;19.00;82.10;;;;;;4962092;28;20039;-88
2021/07/20 08:36:40;;;;;;;11.93;7.03;;;19.00;82.70;;;;;;4972191;28;20050;-88
2021/07/20 08:39:11;;;;;;;11.00;7.50;;;19.10;82.20;;;;;;4956465;28;20035;-87
2021/07/20 08:41:58;;;;;;;13.80;7.72;;;19.10;83.00;;;;;;4956764;28;20054;-88
2021/07/20 08:44:45;;;;;;;11.45;6.32;;;19.20;82.90;;;;;;4974098;28;20113;-87
2021/07/20 08:47:14;;;;;;;11.20;6.13;;;19.20;80.00;;;;;;4967633;28;20354;-88
2021/07/20 08:50:18;;;;;;;10.98;6.50;;;19.20;79.40;;;;;;4957849;28;20236;-89
2021/07/20 08:52:50;;;;;;;8.35;5.93;;;19.10;77.60;;;;;;4945528;28;20402;-89
2021/07/20 08:55:23;;;;;;;7.93;6.25;;;19.20;78.00;;;;;;4966706;28;20458;-87
2021/07/20 08:57:50;;;;;;;9.88;6.35;;;19.20;77.40;;;;;;4979221;28;20117;-87
2021/07/20 09:00:22;;;;;;;10.55;6.60;;;19.10;76.50;;;;;;4959218;28;20055;-88
2021/07/20 09:03:32;;;;;;;10.40;6.45;;;19.10;76.50;;;;;;4957171;28;20055;-87
2021/07/20 09:06:11;;;;;;;10.15;6.88;;;19.10;77.50;;;;;;4955008;28;20043;-86
2021/07/20 09:08:52;;;;;;;12.18;7.03;;;19.10;77.20;;;;;;4977388;28;20393;-90
2021/07/20 09:11:43;;;;;;;10.07;6.43;;;19.30;77.70;;;;;;4979147;28;20047;-88
2021/07/20 09:14:34;;;;;;;11.32;7.57;;;19.30;75.20;;;;;;4976513;28;20482;-88
2021/07/20 09:17:08;;;;;;;10.32;6.38;;;19.30;77.60;;;;;;4971561;28;20047;-87
2021/07/20 09:19:46;;;;;;;11.45;7.40;;;19.30;76.60;;;;;;4978190;28;20066;-88
2021/07/20 09:22:17;;;;;;;10.38;6.45;;;19.30;76.70;;;;;;4972990;28;20031;-85
2021/07/20 09:24:57;;;;;;;9.68;7.30;;;19.20;76.20;;;;;;4970078;28;20552;-89
2021/07/20 09:27:52;;;;;;;10.32;6.82;;;19.30;77.80;;;;;;4969094;28;20030;-89
2021/07/20 09:30:22;;;;;;;12.27;5.45;;;19.20;78.60;;;;;;4964303;28;20049;-88
2021/07/20 09:33:16;;;;;;;8.57;5.50;;;19.10;77.80;;;;;;4970537;28;20031;-88
2021/07/20 09:35:42;;;;;;;8.30;6.03;;;19.10;74.20;;;;;;4981004;28;20035;-90
2021/07/20 09:38:28;;;;;;;10.27;6.40;;;19.10;75.90;;;;;;4986002;28;20130;-89
2021/07/20 09:41:50;;;;;;;8.10;6.22;;;19.00;75.10;;;;;;4973908;28;20039;-86
2021/07/20 09:44:25;;;;;;;8.50;6.65;;;18.90;73.50;;;;;;4911661;29;20072;-89
2021/07/20 09:46:53;;;;;;;11.38;6.97;;;19.00;75.70;;;;;;4916865;29;20035;-87
2021/07/20 09:49:44;;;;;;;10.07;6.28;;;19.00;77.30;;;;;;4949722;28;20166;-89
2021/07/20 09:52:51;;;;;;;8.38;5.97;;;19.10;75.50;;;;;;4966485;28;20381;-87
2021/07/20 09:55:26;;;;;;;12.48;7.32;;;19.10;75.00;;;;;;4969796;28;20046;-89
2021/07/20 09:58:24;;;;;;;10.10;6.07;;;19.30;76.10;;;;;;4952716;28;20096;-88
2021/07/20 10:00:58;;;;;;;11.25;6.93;;;19.30;75.40;;;;;;4967988;28;20047;-90
2021/07/20 10:03:45;;;;;;;9.98;6.95;;;19.40;75.70;;;;;;4981636;28;20034;-92
2021/07/20 10:06:17;;;;;;;11.05;6.70;;;19.50;76.10;;;;;;4970333;28;20039;-91
2021/07/20 10:08:54;;;;;;;;;;;19.50;78.00;;;;;;4980707;28;20042;-88
2021/07/20 10:11:29;;;;;;;9.68;6.40;;;19.60;76.50;;;;;;4970118;28;19940;-88
2021/07/20 10:13:59;;;;;;;15.02;6.80;;;19.60;79.00;;;;;;4972553;28;20050;-88
2021/07/20 10:16:38;;;;;;;10.20;6.63;;;19.50;76.30;;;;;;4971482;28;20114;-90
2021/07/20 10:19:04;;;;;;;12.10;6.68;;;19.50;74.80;;;;;;4978850;28;20041;-87
2021/07/20 10:21:34;;;;;;;12.73;6.60;;;19.50;76.30;;;;;;4980452;28;20043;-89
2021/07/20 10:24:09;;;;;;;11.80;7.03;;;19.60;75.10;;;;;;4984062;28;20217;-88
2021/07/20 10:26:58;;;;;;;12.10;6.50;;;19.70;76.50;;;;;;4967044;28;20046;-89
2021/07/20 10:29:40;;;;;;;12.00;7.75;;;19.80;77.20;;;;;;4935290;28;20039;-90
2021/07/20 10:32:12;;;;;;;10.10;6.88;;;19.80;76.40;;;;;;4959844;28;20051;-89
2021/07/20 10:34:45;;;;;;;11.75;7.28;;;19.80;75.60;;;;;;4961439;28;20174;-89
2021/07/20 10:37:23;;;;;;;10.27;7.00;;;19.80;75.50;;;;;;4954713;28;20047;-88
2021/07/20 10:39:56;;;;;;;13.25;6.93;;;19.80;74.30;;;;;;4948196;28;20445;-88
2021/07/20 10:42:45;;;;;;;11.65;7.30;;;19.80;74.80;;;;;;4971445;28;20541;-88
2021/07/20 10:45:17;;;;;;;11.07;6.97;;;19.90;74.70;;;;;;4947921;28;20521;-88
2021/07/20 10:47:45;;;;;;;10.97;6.87;;;19.90;73.70;;;;;;4959629;28;20069;-89
2021/07/20 10:50:32;;;;;;;10.25;6.65;;;19.90;72.90;;;;;;4970293;28;20516;-88
2021/07/20 10:53:31;;;;;;;9.02;6.32;;;19.90;73.90;;;;;;4955027;28;20396;-89
2021/07/20 10:56:15;;;;;;;9.27;6.80;;;19.90;74.40;;;;;;4955854;28;20105;-88
2021/07/20 10:58:51;;;;;;;9.23;6.47;;;19.90;76.90;;;;;;4957710;28;20241;-89
2021/07/20 11:01:24;;;;;;;9.93;6.82;;;19.90;76.40;;;;;;4971819;28;20498;-89
2021/07/20 11:04:02;;;;;;;11.60;7.32;;;20.00;76.60;;;;;;4977098;28;20504;-90
2021/07/20 11:06:28;;;;;;;10.27;6.28;;;20.10;77.50;;;;;;4982008;28;20469;-89
2021/07/20 11:09:00;;;;;;;13.18;6.40;;;20.10;76.50;;;;;;4952549;28;20031;-89
2021/07/20 11:11:32;;;;;;;10.60;6.90;;;20.20;74.80;;;;;;4971451;28;20042;-89
2021/07/20 11:13:59;;;;;;;9.27;6.63;;;20.30;73.20;;;;;;4961439;28;20049;-90
2021/07/20 11:16:26;;;;;;;12.15;7.53;;;20.30;73.50;;;;;;4955926;28;20105;-91
2021/07/20 11:18:53;;;;;;;10.55;6.57;;;20.30;75.90;;;;;;4932298;28;20055;-90
2021/07/20 11:21:23;;;;;;;10.98;6.72;;;20.40;75.30;;;;;;4928969;28;20231;-89
2021/07/20 11:23:50;;;;;;;10.57;7.43;;;20.60;75.20;;;;;;4961734;28;20110;-90
2021/07/20 11:26:17;;;;;;;10.30;6.55;;;20.60;75.80;;;;;;4925863;28;20050;-92
2021/07/20 11:28:44;;;;;;;10.80;6.45;;;20.60;74.50;;;;;;4972762;28;20195;-87
2021/07/20 11:31:14;;;;;;;9.63;6.93;;;20.60;73.60;;;;;;4970201;28;20035;-88
2021/07/20 11:33:47;;;;;;;10.65;6.80;;;20.70;73.30;;;;;;4947027;28;20632;-90
2021/07/20 11:36:18;;;;;;;12.70;7.78;;;20.80;76.40;;;;;;4970651;28;20035;-89
2021/07/20 11:38:47;;;;;;;12.40;7.10;;;20.80;74.80;;;;;;4952938;28;20043;-87
2021/07/20 11:41:23;;;;;;;9.70;7.13;;;20.80;74.90;;;;;;4958859;28;20046;-88
2021/07/20 11:44:02;;;;;;;12.25;6.70;;;20.80;74.30;;;;;;4971156;28;20031;-88
2021/07/20 11:46:56;;;;;;;10.60;7.28;;;20.80;74.40;;;;;;4951108;28;20114;-88
2021/07/20 11:49:37;;;;;;;11.55;7.10;;;20.80;75.40;;;;;;4967839;28;20532;-87
2021/07/20 11:52:10;;;;;;;10.57;6.85;;;20.80;74.40;;;;;;4966546;28;20395;-87
2021/07/20 11:55:01;;;;;;;9.60;6.40;;;20.80;74.10;;;;;;4969374;28;20031;-87
2021/07/20 11:57:39;;;;;;;10.40;6.55;;;20.80;73.60;;;;;;4948076;28;20078;-88
2021/07/20 12:00:46;;;;;;;9.43;6.32;;;20.80;73.70;;;;;;4971158;28;20036;-88
2021/07/20 12:03:34;;;;;;;10.38;6.80;;;20.80;73.70;;;;;;4922267;28;20430;-87
2021/07/20 12:06:24;;;;;;;9.85;6.57;;;20.80;73.50;;;;;;4949674;28;20537;-88
2021/07/20 12:09:05;;;;;;;10.05;6.85;;;20.80;75.90;;;;;;4968389;28;20054;-89
2021/07/20 12:11:35;;;;;;;13.70;7.13;;;20.70;76.00;;;;;;4969192;28;20414;-90
2021/07/20 12:14:06;;;;;;;10.55;7.10;;;20.70;75.50;;;;;;4972919;28;20067;-90
2021/07/20 12:16:39;;;;;;;12.90;6.75;;;20.80;74.30;;;;;;4971507;28;20046;-89
2021/07/20 12:19:05;;;;;;;14.52;6.50;;;20.70;73.80;;;;;;4961357;28;20031;-89
2021/07/20 12:21:32;;;;;;;9.27;6.43;;;20.80;73.20;;;;;;4945949;28;20058;-89
2021/07/20 12:24:08;;;;;;;11.45;6.88;;;20.70;73.40;;;;;;4966432;28;20114;-89
2021/07/20 12:26:35;;;;;;;10.88;7.00;;;20.80;73.30;;;;;;4970897;28;20070;-88
2021/07/20 12:29:01;;;;;;;10.75;6.80;;;20.80;73.40;;;;;;4941928;28;20053;-92
2021/07/20 12:31:30;;;;;;;11.52;7.07;;;20.80;72.40;;;;;;4969537;28;20714;-89
2021/07/20 12:33:58;;;;;;;8.77;6.30;;;20.80;72.30;;;;;;4920730;28;20077;-89
2021/07/20 12:36:25;;;;;;;11.10;7.47;;;20.70;71.40;;;;;;4951254;28;20038;-89
2021/07/20 12:39:07;;;;;;;12.43;7.15;;;20.70;73.60;;;;;;4976275;28;20049;-88
2021/07/20 12:41:35;;;;;;;11.93;6.75;;;20.70;73.10;;;;;;4974128;28;20050;-88
2021/07/20 12:44:02;;;;;;;8.55;6.15;;;20.70;74.60;;;;;;4957770;28;20105;-89
2021/07/20 12:46:29;;;;;;;12.27;6.78;;;20.80;74.20;;;;;;4956470;28;20054;-91
2021/07/20 12:48:56;;;;;;;6.85;5.53;;;20.80;74.00;;;;;;4951376;28;20031;-89
2021/07/20 12:51:36;;;;;;;10.25;6.32;;;20.80;74.20;;;;;;4970593;28;20136;-89
2021/07/20 12:54:03;;;;;;;8.70;6.10;;;20.90;74.00;;;;;;4974510;28;20039;-91
2021/07/20 12:56:30;;;;;;;9.30;6.25;;;20.90;72.90;;;;;;4927746;28;20044;-90